Time;durP1;ratioP1;P1;durP2;ratioP2;P2;SDS_P1;SDS_P2;PMS_P1;PMS_P2;Temp;Humidity;BMP_temperature;BMP_pressure;BME280_temperature;BME280_humidity;BME280_pressure;Samples;Min_cycle;Max_cycle;Signal;HPM_P1;HPM_P2
2022/04/06 00:00:38;;;;;;;3.90;3.20;;;;;;;7.39;100.00;94036.81;4950170;28;20204;-67
2022/04/06 00:03:24;;;;;;;4.10;3.20;;;;;;;7.36;100.00;94026.88;4969496;28;20220;-67
2022/04/06 00:06:10;;;;;;;3.47;3.10;;;;;;;7.35;100.00;94028.84;4944265;28;20201;-67
2022/04/06 00:08:56;;;;;;;4.20;3.03;;;;;;;7.36;100.00;94029.59;4955136;28;20296;-67
2022/04/06 00:11:42;;;;;;;2.87;2.57;;;;;;;7.39;100.00;94028.66;4955928;28;20848;-67
2022/04/06 00:14:27;;;;;;;3.50;2.97;;;;;;;7.43;100.00;94018.41;4972523;28;20192;-67
2022/04/06 00:17:14;;;;;;;3.83;3.10;;;;;;;7.41;100.00;94028.97;4957003;28;20418;-67
2022/04/06 00:19:59;;;;;;;4.67;3.57;;;;;;;7.35;100.00;94009.06;4953544;28;20612;-67
2022/04/06 00:22:45;;;;;;;4.30;3.53;;;;;;;7.44;100.00;94030.78;4942946;28;20194;-67
2022/04/06 00:25:32;;;;;;;3.63;2.77;;;;;;;7.41;100.00;94020.06;4960721;28;20215;-67
2022/04/06 00:28:18;;;;;;;6.03;2.53;;;;;;;7.33;100.00;94014.94;4936623;28;20221;-67
2022/04/06 00:31:04;;;;;;;6.40;2.80;;;;;;;7.32;100.00;94021.59;4963190;28;20568;-67
2022/04/06 00:33:53;;;;;;;8.73;3.10;;;;;;;7.32;100.00;94021.59;4939099;29;20198;-67
2022/04/06 00:36:40;;;;;;;2.70;2.17;;;;;;;7.31;100.00;94019.34;4941449;28;20220;-67
2022/04/06 00:39:25;;;;;;;3.10;2.53;;;;;;;7.35;100.00;94007.09;4971320;28;20306;-67
2022/04/06 00:42:11;;;;;;;2.27;2.00;;;;;;;7.35;100.00;94011.78;4948544;28;20574;-67
2022/04/06 00:44:57;;;;;;;2.77;2.10;;;;;;;7.35;100.00;94012.53;4959110;28;20188;-67
2022/04/06 00:47:43;;;;;;;3.33;1.80;;;;;;;7.34;100.00;94013.75;4957222;28;20221;-67
2022/04/06 00:50:30;;;;;;;2.07;1.90;;;;;;;7.34;100.00;94010.28;4949492;28;20204;-67
2022/04/06 00:53:16;;;;;;;2.10;1.67;;;;;;;7.34;100.00;94013.00;4970714;28;20197;-68
2022/04/06 00:56:02;;;;;;;2.73;1.93;;;;;;;7.27;100.00;94008.66;4954961;28;20271;-67
2022/04/06 00:58:48;;;;;;;3.47;1.70;;;;;;;7.24;100.00;93987.84;4963918;28;20582;-68
2022/04/06 01:01:34;;;;;;;2.70;2.03;;;;;;;7.31;100.00;94011.94;4953614;28;20192;-67
2022/04/06 01:04:21;;;;;;;2.50;1.77;;;;;;;7.33;100.00;93997.91;4965194;28;20208;-67
2022/04/06 01:07:07;;;;;;;1.97;1.77;;;;;;;7.33;100.00;94004.09;4955076;28;20273;-66
2022/04/06 01:09:53;;;;;;;3.73;1.90;;;;;;;7.41;100.00;94004.53;4956450;28;20228;-67
2022/04/06 01:12:40;;;;;;;2.30;1.60;;;;;;;7.36;100.00;93984.16;4937823;28;20201;-68
2022/04/06 01:15:27;;;;;;;2.37;2.00;;;;;;;7.41;100.00;93996.38;4953267;28;20201;-67
2022/04/06 01:18:17;;;;;;;4.00;1.80;;;;;;;7.42;100.00;93991.69;4953015;28;20224;-67
2022/04/06 01:21:04;;;;;;;3.10;1.60;;;;;;;7.35;100.00;93985.38;4966659;28;20623;-68
2022/04/06 01:23:50;;;;;;;2.03;1.80;;;;;;;7.35;100.00;93985.38;4967161;28;20207;-65
2022/04/06 01:26:36;;;;;;;3.97;1.93;;;;;;;7.36;100.00;93988.84;4962140;28;20222;-65
2022/04/06 01:29:22;;;;;;;3.80;1.87;;;;;;;7.41;100.00;93974.66;4978787;28;20251;-65
2022/04/06 01:32:12;;;;;;;2.30;1.80;;;;;;;7.38;100.00;93981.72;4954029;28;20228;-65
2022/04/06 01:34:59;;;;;;;1.93;1.57;;;;;;;7.35;100.00;93979.19;4947510;28;20627;-65
2022/04/06 01:37:45;;;;;;;1.50;1.40;;;;;;;7.38;100.00;93981.00;4958517;28;20218;-66
2022/04/06 01:40:32;;;;;;;1.40;1.30;;;;;;;7.35;100.00;93987.34;4959442;28;20268;-65
2022/04/06 01:43:18;;;;;;;1.90;1.70;;;;;;;7.31;100.00;93981.31;4961058;28;20496;-65
2022/04/06 01:46:04;;;;;;;2.23;1.47;;;;;;;7.30;100.00;93977.09;4971176;28;20782;-66
2022/04/06 01:52:12;;;;;;;1.50;1.37;;;;;;;7.25;100.00;93983.13;4949023;28;20201;-66
2022/04/06 01:55:05;;;;;;;1.47;1.33;;;;;;;7.21;100.00;93977.88;4949706;28;20205;-66
2022/04/06 01:57:51;;;;;;;1.20;1.10;;;;;;;7.18;100.00;93976.06;4945617;28;20706;-66
2022/04/06 02:00:37;;;;;;;1.20;1.10;;;;;;;7.16;100.00;93969.63;4948623;28;20189;-66
2022/04/06 02:03:23;;;;;;;1.20;1.10;;;;;;;7.19;100.00;93977.56;4956118;28;20629;-67
2022/04/06 02:06:10;;;;;;;1.23;1.13;;;;;;;7.23;100.00;93970.03;4939588;28;20226;-66
2022/04/06 02:08:56;;;;;;;1.90;1.10;;;;;;;7.23;100.00;93972.75;4952573;28;20232;-66
2022/04/06 02:11:42;;;;;;;1.10;1.00;;;;;;;7.29;100.00;93964.72;4954490;28;20204;-66
2022/04/06 02:14:28;;;;;;;2.00;1.40;;;;;;;7.28;100.00;93963.22;4958545;28;20193;-66
2022/04/06 02:17:14;;;;;;;1.20;1.10;;;;;;;7.28;100.00;93961.25;4958875;28;20224;-66
2022/04/06 02:20:00;;;;;;;1.90;1.23;;;;;;;7.22;100.00;93954.19;4961843;28;20208;-66
2022/04/06 02:22:46;;;;;;;0.90;0.73;;;;;;;7.24;100.00;93951.78;4949207;28;20272;-66
2022/04/06 02:25:32;;;;;;;0.90;0.90;;;;;;;7.28;100.00;93953.09;4956563;28;20701;-66
2022/04/06 02:28:18;;;;;;;2.03;1.30;;;;;;;7.27;100.00;93945.44;4945792;28;20257;-66
2022/04/06 02:31:04;;;;;;;1.10;1.00;;;;;;;7.31;100.00;93948.75;4956012;28;20197;-66
2022/04/06 02:33:50;;;;;;;1.10;1.00;;;;;;;7.33;100.00;93943.56;4970607;28;20246;-67
2022/04/06 02:36:35;;;;;;;1.37;0.90;;;;;;;7.32;100.00;93942.09;4954679;28;20639;-67
2022/04/06 02:39:21;;;;;;;0.83;0.77;;;;;;;7.32;100.00;93939.38;4969464;28;20292;-67
2022/04/06 02:42:07;;;;;;;2.60;1.20;;;;;;;7.37;100.00;93946.88;4963977;28;20769;-67
2022/04/06 02:44:53;;;;;;;1.47;1.17;;;;;;;7.34;100.00;93942.38;4969908;28;20201;-67
2022/04/06 02:47:39;;;;;;;0.70;0.70;;;;;;;7.38;100.00;93939.50;4953737;28;20217;-67
2022/04/06 02:50:25;;;;;;;1.13;0.97;;;;;;;7.36;100.00;93937.25;4972135;28;20340;-67
2022/04/06 02:53:11;;;;;;;0.83;0.83;;;;;;;7.34;100.00;93932.28;4957617;28;20193;-67
2022/04/06 02:55:57;;;;;;;1.30;1.10;;;;;;;7.36;100.00;93929.84;4960167;28;20283;-67
2022/04/06 02:58:43;;;;;;;1.27;1.10;;;;;;;7.36;100.00;93931.81;4949038;28;20217;-67
2022/04/06 03:01:29;;;;;;;1.37;1.00;;;;;;;7.32;100.00;93929.25;4947739;28;20220;-66
2022/04/06 03:04:15;;;;;;;1.27;0.77;;;;;;;7.28;100.00;93928.66;4952890;28;20231;-67
2022/04/06 03:07:01;;;;;;;1.43;1.10;;;;;;;7.22;100.00;93922.38;4968241;28;20251;-67
2022/04/06 03:09:47;;;;;;;0.83;0.70;;;;;;;7.04;100.00;93916.25;4953099;28;20228;-66
2022/04/06 03:12:33;;;;;;;1.27;0.93;;;;;;;7.02;100.00;93911.28;4966106;28;20221;-67
2022/04/06 03:15:19;;;;;;;1.07;0.70;;;;;;;6.96;100.00;93913.09;4960915;28;20715;-66
2022/04/06 03:18:08;;;;;;;2.53;1.00;;;;;;;6.90;100.00;93912.25;4937356;29;20265;-66
2022/04/06 03:20:54;;;;;;;1.67;1.10;;;;;;;6.83;100.00;93909.84;4954515;28;20200;-67
2022/04/06 03:23:40;;;;;;;1.57;1.10;;;;;;;6.74;100.00;93906.38;4944041;28;20190;-66
2022/04/06 03:26:26;;;;;;;1.50;1.20;;;;;;;6.46;100.00;93889.44;4948431;28;20225;-66
2022/04/06 03:29:12;;;;;;;1.17;1.07;;;;;;;6.54;100.00;93900.72;4963330;28;20283;-66
2022/04/06 03:31:58;;;;;;;2.77;1.10;;;;;;;6.34;100.00;93916.72;4951652;29;20205;-66
2022/04/06 03:34:43;;;;;;;0.80;0.80;;;;;;;6.32;100.00;93906.31;4941096;28;20667;-66
2022/04/06 03:37:30;;;;;;;1.67;1.43;;;;;;;6.14;100.00;93904.38;4966296;28;20213;-66
2022/04/06 03:40:16;;;;;;;1.20;1.10;;;;;;;6.08;100.00;93898.06;4962726;28;20280;-66
2022/04/06 03:43:02;;;;;;;1.17;1.13;;;;;;;5.97;100.00;93899.72;4969031;28;20675;-66
2022/04/06 03:45:47;;;;;;;2.20;1.20;;;;;;;5.88;100.00;93900.47;4957602;28;20288;-66
2022/04/06 03:48:33;;;;;;;4.40;0.87;;;;;;;5.82;100.00;93904.97;4954056;28;20224;-66
2022/04/06 03:51:19;;;;;;;1.07;0.97;;;;;;;5.87;100.00;93907.06;4957455;28;20674;-66
2022/04/06 03:54:08;;;;;;;5.67;1.47;;;;;;;5.77;100.00;93900.13;4971337;28;20191;-67
2022/04/06 03:56:54;;;;;;;1.07;0.97;;;;;;;5.82;100.00;93894.13;4955518;28;20199;-67
2022/04/06 03:59:40;;;;;;;1.90;1.30;;;;;;;5.93;100.00;93902.59;4947169;29;20201;-67
2022/04/06 04:02:26;;;;;;;3.00;1.50;;;;;;;5.91;100.00;93904.22;4959931;28;20323;-68
2022/04/06 04:05:12;;;;;;;1.77;1.47;;;;;;;5.92;100.00;93903.03;4948776;28;20292;-67
2022/04/06 04:07:58;;;;;;;3.23;1.60;;;;;;;6.01;100.00;93889.47;4955019;28;20281;-68
2022/04/06 04:10:44;;;;;;;2.00;1.63;;;;;;;6.13;100.00;93891.28;4957563;28;20571;-67
2022/04/06 04:13:30;;;;;;;2.97;1.60;;;;;;;6.16;100.00;93889.63;4945896;28;20193;-67
2022/04/06 04:16:16;;;;;;;1.70;1.60;;;;;;;6.06;100.00;93875.31;4951309;28;20193;-64
2022/04/06 04:19:02;;;;;;;3.43;1.80;;;;;;;6.21;100.00;93876.19;4969840;28;20670;-65
2022/04/06 04:21:48;;;;;;;2.03;1.50;;;;;;;6.29;100.00;93871.22;4953398;28;20279;-64
2022/04/06 04:24:34;;;;;;;3.93;1.93;;;;;;;6.32;100.00;93875.75;4948230;28;20236;-65
2022/04/06 04:27:20;;;;;;;2.00;1.70;;;;;;;6.27;100.00;93868.97;4965276;28;20212;-64
2022/04/06 04:30:06;;;;;;;2.13;1.93;;;;;;;6.35;100.00;93870.16;4945123;28;20216;-65
2022/04/06 04:32:52;;;;;;;1.70;1.43;;;;;;;6.42;100.00;93869.84;4969060;28;20281;-65
2022/04/06 04:35:38;;;;;;;3.37;1.73;;;;;;;6.47;100.00;93871.19;4947094;28;20186;-65
2022/04/06 04:38:24;;;;;;;1.87;1.70;;;;;;;6.45;100.00;93868.94;4969205;28;20627;-65
2022/04/06 04:41:11;;;;;;;3.07;1.97;;;;;;;6.52;100.00;93870.56;4950725;28;20265;-65
2022/04/06 04:43:56;;;;;;;3.77;1.83;;;;;;;6.46;100.00;93862.31;4956899;28;20324;-64
2022/04/06 04:46:42;;;;;;;1.63;1.40;;;;;;;6.52;100.00;93863.19;4956899;28;20298;-65
2022/04/06 04:49:28;;;;;;;1.37;1.27;;;;;;;6.58;100.00;93868.75;4956507;28;20217;-64
2022/04/06 04:52:14;;;;;;;1.20;1.10;;;;;;;6.56;100.00;93860.31;4969555;28;20197;-65
2022/04/06 04:55:01;;;;;;;1.67;1.10;;;;;;;6.50;100.00;93862.16;4935940;28;20216;-65
2022/04/06 04:57:47;;;;;;;1.70;1.50;;;;;;;6.57;100.00;93864.53;4965908;28;20240;-65
2022/04/06 05:00:33;;;;;;;1.97;1.50;;;;;;;6.65;100.00;93871.16;4949112;28;20185;-65
2022/04/06 05:03:19;;;;;;;1.47;1.37;;;;;;;6.64;100.00;93869.63;4944689;28;20237;-65
2022/04/06 05:06:06;;;;;;;3.70;1.90;;;;;;;6.69;100.00;93872.50;4938117;29;20215;-65
2022/04/06 05:08:51;;;;;;;1.40;1.30;;;;;;;6.77;100.00;93873.66;4964464;28;20392;-65
2022/04/06 05:11:37;;;;;;;2.23;1.80;;;;;;;6.83;100.00;93874.56;4959736;28;20579;-65
2022/04/06 05:14:23;;;;;;;4.77;2.40;;;;;;;6.86;100.00;93881.78;4970682;28;20259;-65
2022/04/06 05:17:09;;;;;;;3.13;2.57;;;;;;;6.91;100.00;93873.03;4936780;28;20250;-68
2022/04/06 05:19:56;;;;;;;1.93;1.53;;;;;;;6.97;100.00;93868.47;4954010;28;20212;-68
2022/04/06 05:22:42;;;;;;;2.00;1.57;;;;;;;7.00;100.00;93870.28;4963169;28;20196;-68
2022/04/06 05:25:28;;;;;;;2.17;1.60;;;;;;;6.98;100.00;93867.25;4952958;28;20197;-68
2022/04/06 05:28:15;;;;;;;1.83;1.40;;;;;;;7.06;100.00;93879.28;4970319;28;20612;-67
2022/04/06 05:31:01;;;;;;;0.90;0.90;;;;;;;7.12;100.00;93865.84;4956351;28;20631;-68
2022/04/06 05:33:48;;;;;;;1.50;0.90;;;;;;;7.16;100.00;93867.16;4953899;28;20189;-67
2022/04/06 05:36:34;;;;;;;1.67;0.80;;;;;;;7.23;100.00;93875.00;4964579;28;20259;-68
2022/04/06 05:39:20;;;;;;;0.70;0.70;;;;;;;7.21;100.00;93877.41;4954827;28;20197;-64
2022/04/06 05:42:06;;;;;;;0.60;0.60;;;;;;;7.32;100.00;93885.06;4970201;28;20196;-64
2022/04/06 05:44:52;;;;;;;0.80;0.80;;;;;;;7.29;100.00;93888.69;4970499;28;20296;-65
2022/04/06 05:47:38;;;;;;;1.30;0.60;;;;;;;7.19;100.00;93874.38;4951816;28;20217;-64
2022/04/06 05:50:24;;;;;;;0.67;0.67;;;;;;;7.23;100.00;93879.66;4944156;28;20204;-64
2022/04/06 05:53:10;;;;;;;1.07;0.87;;;;;;;7.30;100.00;93882.81;4969598;28;20236;-64
2022/04/06 05:55:56;;;;;;;0.60;0.60;;;;;;;7.40;100.00;93871.91;4954439;28;20190;-65
2022/04/06 05:58:43;;;;;;;2.50;0.60;;;;;;;7.54;100.00;93876.63;4950532;29;20546;-64
2022/04/06 06:01:29;;;;;;;1.37;0.73;;;;;;;7.61;100.00;93874.31;4952192;28;20269;-64
2022/04/06 06:04:15;;;;;;;0.90;0.60;;;;;;;7.69;100.00;93878.19;4940391;28;20193;-65
2022/04/06 06:07:05;;;;;;;0.83;0.53;;;;;;;7.59;100.00;93874.03;4936181;29;20197;-65
2022/04/06 06:09:53;;;;;;;0.50;0.50;;;;;;;7.63;100.00;93873.84;4945292;28;20268;-68
2022/04/06 06:12:39;;;;;;;0.60;0.50;;;;;;;7.66;100.00;93879.13;4943308;28;20232;-67
2022/04/06 06:15:25;;;;;;;1.27;0.70;;;;;;;7.77;100.00;93876.63;4963850;28;20209;-68
2022/04/06 06:18:12;;;;;;;0.50;0.47;;;;;;;7.93;100.00;93873.50;4966006;28;20722;-68
2022/04/06 06:21:00;;;;;;;0.90;0.53;;;;;;;7.81;100.00;93879.91;4943075;28;20264;-68
2022/04/06 06:23:47;;;;;;;0.63;0.50;;;;;;;7.75;100.00;93881.78;4969095;28;20590;-68
2022/04/06 06:26:34;;;;;;;1.10;0.60;;;;;;;7.93;100.00;93887.09;4953079;28;20291;-65
2022/04/06 06:29:20;;;;;;;4.57;0.50;;;;;;;8.11;100.00;93891.63;4953743;28;20664;-67
2022/04/06 06:32:09;;;;;;;0.50;0.50;;;;;;;8.09;100.00;93875.03;4973492;28;20208;-67
2022/04/06 06:34:55;;;;;;;0.57;0.57;;;;;;;8.06;100.00;93886.84;4942317;28;20193;-66
2022/04/06 06:37:52;;;;;;;0.43;0.43;;;;;;;7.90;100.00;93877.16;4942994;28;20304;-66
2022/04/06 06:40:38;;;;;;;1.57;0.63;;;;;;;7.98;100.00;93912.88;4963603;28;20194;-68
2022/04/06 06:43:23;;;;;;;1.10;0.50;;;;;;;8.05;100.00;93885.31;4968485;28;20200;-68
2022/04/06 06:46:09;;;;;;;0.60;0.60;;;;;;;8.11;100.00;93876.06;4970785;28;20200;-68
2022/04/06 06:49:02;;;;;;;0.57;0.57;;;;;;;8.13;100.00;93873.63;4962300;28;20217;-69
2022/04/06 06:51:48;;;;;;;0.90;0.40;;;;;;;8.17;100.00;93874.22;4952989;28;20633;-66
2022/04/06 06:54:34;;;;;;;0.60;0.50;;;;;;;8.37;100.00;93879.03;4962378;28;20902;-67
2022/04/06 06:57:20;;;;;;;1.70;0.63;;;;;;;8.57;100.00;93875.69;4948823;28;20210;-68
2022/04/06 07:00:07;;;;;;;0.50;0.50;;;;;;;8.68;100.00;93871.19;4969833;28;20647;-68
2022/04/06 07:02:53;;;;;;;0.53;0.50;;;;;;;8.74;100.00;93863.13;4976222;28;20200;-67
2022/04/06 07:05:39;;;;;;;1.30;0.50;;;;;;;8.76;100.00;93864.13;4968974;28;20197;-67
2022/04/06 07:08:25;;;;;;;0.60;0.60;;;;;;;8.99;100.00;93866.00;4967387;28;20295;-67
2022/04/06 07:11:11;;;;;;;1.60;0.70;;;;;;;9.02;100.00;93861.56;4970491;28;20347;-67
2022/04/06 07:13:59;;;;;;;0.73;0.43;;;;;;;9.26;100.00;93860.22;4969778;28;20192;-68
2022/04/06 07:16:45;;;;;;;0.60;0.60;;;;;;;9.41;100.00;93860.16;4971036;28;20193;-67
2022/04/06 07:19:32;;;;;;;1.67;0.90;;;;;;;9.38;100.00;93859.13;4973071;28;20196;-67
2022/04/06 07:22:18;;;;;;;0.60;0.60;;;;;;;9.21;100.00;93866.34;4967011;28;21037;-67
2022/04/06 07:25:04;;;;;;;0.70;0.70;;;;;;;9.38;100.00;93850.94;4972122;28;20197;-67
2022/04/06 07:27:50;;;;;;;0.70;0.70;;;;;;;9.27;100.00;93856.25;4965520;28;20220;-67
2022/04/06 07:30:36;;;;;;;2.07;1.00;;;;;;;9.53;100.00;93854.41;4966970;28;20185;-67
2022/04/06 07:33:23;;;;;;;1.53;0.70;;;;;;;9.69;100.00;93853.09;4953869;28;20263;-67
2022/04/06 07:36:09;;;;;;;1.07;0.93;;;;;;;9.81;100.00;93854.75;4967668;28;20240;-67
2022/04/06 07:38:55;;;;;;;5.70;0.83;;;;;;;9.92;100.00;93846.72;4956597;28;20295;-67
2022/04/06 07:41:41;;;;;;;3.60;0.97;;;;;;;10.25;100.00;93851.81;4954652;28;20197;-68
2022/04/06 07:44:27;;;;;;;1.27;1.17;;;;;;;10.32;100.00;93843.19;4967167;28;20243;-68
2022/04/06 07:47:13;;;;;;;1.57;1.30;;;;;;;10.04;100.00;93840.16;4949079;28;20690;-68
2022/04/06 07:50:00;;;;;;;2.10;0.90;;;;;;;10.18;100.00;93833.13;4938962;28;20231;-69
2022/04/06 07:52:47;;;;;;;2.50;1.40;;;;;;;10.80;100.00;93839.44;4966718;28;20301;-69
2022/04/06 07:55:33;;;;;;;2.17;1.30;;;;;;;10.93;100.00;93839.03;4953295;28;20232;-69
2022/04/06 07:58:19;;;;;;;1.90;1.40;;;;;;;11.16;100.00;93842.69;4955034;28;20223;-69
2022/04/06 08:01:08;;;;;;;1.73;1.37;;;;;;;11.47;100.00;93835.19;4945875;28;20198;-69
2022/04/06 08:03:53;;;;;;;0.97;0.97;;;;;;;11.80;100.00;93837.38;4985529;28;20318;-69
2022/04/06 08:06:39;;;;;;;2.00;1.63;;;;;;;12.05;100.00;93839.97;4974362;28;20197;-69
2022/04/06 08:09:25;;;;;;;1.40;1.30;;;;;;;12.04;99.13;93840.47;4966026;28;20228;-69
2022/04/06 08:12:11;;;;;;;2.77;1.53;;;;;;;11.75;100.00;93840.84;4940018;28;20193;-69
2022/04/06 08:14:57;;;;;;;1.97;1.40;;;;;;;12.02;99.40;93834.72;4962311;28;20193;-69
2022/04/06 08:17:45;;;;;;;1.70;1.60;;;;;;;12.12;96.98;93822.31;4956868;28;20223;-69
2022/04/06 08:20:31;;;;;;;1.70;1.60;;;;;;;12.27;94.96;93825.59;4957646;28;20197;-68
2022/04/06 08:23:23;;;;;;;1.63;1.53;;;;;;;12.39;95.06;93829.13;4951116;28;20189;-68
2022/04/06 08:26:18;;;;;;;2.50;1.90;;;;;;;12.24;93.71;93832.06;4970827;28;20548;-68
2022/04/06 08:29:04;;;;;;;2.97;1.90;;;;;;;12.32;96.44;93826.88;4954206;28;20275;-68
2022/04/06 08:31:53;;;;;;;1.67;1.57;;;;;;;12.49;92.96;93819.44;4972406;28;20324;-69
2022/04/06 08:34:42;;;;;;;1.70;1.60;;;;;;;12.73;91.98;93820.47;4974763;28;20201;-68
2022/04/06 08:37:34;;;;;;;6.37;1.90;;;;;;;13.20;90.28;93824.25;4953761;28;20244;-68
2022/04/06 08:40:21;;;;;;;2.53;1.60;;;;;;;13.41;88.03;93821.94;4954594;28;20204;-68
2022/04/06 08:46:34;;;;;;;1.50;1.40;;;;;;;12.92;87.65;93820.72;4956180;28;20619;-68
2022/04/06 08:49:23;;;;;;;1.77;1.43;;;;;;;13.66;88.69;93821.66;4966166;28;20232;-66
2022/04/06 08:52:09;;;;;;;3.13;2.23;;;;;;;13.58;86.78;93822.66;4967879;28;20197;-66
2022/04/06 08:54:55;;;;;;;2.30;1.37;;;;;;;13.49;84.91;93807.22;4948172;28;20200;-66
2022/04/06 08:57:41;;;;;;;2.50;1.60;;;;;;;13.93;81.18;93809.09;4954378;28;20224;-66
2022/04/06 09:00:27;;;;;;;1.60;1.37;;;;;;;13.71;83.60;93800.94;4960137;28;20278;-66
2022/04/06 09:03:14;;;;;;;2.53;1.60;;;;;;;13.55;81.66;93798.97;4977608;28;20196;-66
2022/04/06 09:06:01;;;;;;;2.20;1.50;;;;;;;13.68;86.71;93816.41;4980311;28;20747;-66
2022/04/06 09:08:48;;;;;;;2.03;1.43;;;;;;;13.71;84.46;93795.47;4964798;28;20225;-66
2022/04/06 09:11:42;;;;;;;2.77;1.70;;;;;;;14.05;81.51;93797.56;4940352;28;20189;-66
2022/04/06 09:14:32;;;;;;;2.20;2.00;;;;;;;13.78;80.54;93789.44;4943801;28;20221;-66
2022/04/06 09:17:22;;;;;;;2.33;1.47;;;;;;;14.11;80.38;93792.78;4947806;28;20284;-64
2022/04/06 09:20:10;;;;;;;4.77;1.73;;;;;;;13.97;79.88;93782.88;4970430;28;20204;-65
2022/04/06 09:23:00;;;;;;;1.60;1.50;;;;;;;14.18;79.18;93795.00;4956904;28;20193;-65
2022/04/06 09:25:48;;;;;;;3.63;1.33;;;;;;;14.51;78.73;93778.34;4966483;28;20240;-66
2022/04/06 09:28:54;;;;;;;4.13;1.50;;;;;;;14.51;75.75;93778.34;4949625;28;20218;-65
2022/04/06 09:31:40;;;;;;;1.50;1.40;;;;;;;14.22;74.53;93770.75;4964111;28;20251;-68
2022/04/06 09:34:27;;;;;;;4.00;1.50;;;;;;;14.92;76.24;93775.56;4964340;28;20260;-66
2022/04/06 09:37:23;;;;;;;1.90;1.40;;;;;;;15.06;73.15;93765.44;4969718;28;20217;-66
2022/04/06 09:40:09;;;;;;;1.97;1.67;;;;;;;15.26;70.79;93749.25;4950517;28;20201;-66
2022/04/06 09:42:55;;;;;;;1.57;1.23;;;;;;;15.31;74.32;93753.94;4965912;28;20201;-66
2022/04/06 09:48:55;;;;;;;12.27;10.97;;;;;;;15.45;72.13;93741.06;4954939;28;20283;-66
2022/04/06 09:51:46;;;;;;;3.03;2.83;;;;;;;15.62;71.91;93733.38;4949678;28;20202;-67
2022/04/06 09:54:36;;;;;;;2.30;1.60;;;;;;;14.92;70.32;93739.81;4936626;29;20197;-66
2022/04/06 09:57:22;;;;;;;1.80;1.37;;;;;;;14.86;72.53;93736.38;4966626;28;20307;-65
2022/04/06 10:00:11;;;;;;;1.47;1.37;;;;;;;14.99;72.77;93735.75;4937888;28;20186;-66
2022/04/06 10:03:07;;;;;;;3.00;1.40;;;;;;;15.32;72.25;93730.66;4964476;28;20196;-66
2022/04/06 10:05:54;;;;;;;1.73;1.50;;;;;;;15.32;70.49;93727.91;4949942;28;20653;-67
2022/04/06 10:08:40;;;;;;;1.53;1.43;;;;;;;15.15;68.66;93721.84;4962788;28;20275;-66
2022/04/06 10:11:25;;;;;;;1.60;1.50;;;;;;;14.13;68.18;93718.16;4967470;28;20204;-65
2022/04/06 10:14:11;;;;;;;1.90;1.50;;;;;;;14.11;70.46;93718.66;4959775;28;20232;-65
2022/04/06 10:16:58;;;;;;;2.03;1.73;;;;;;;13.68;71.22;93720.38;4956018;28;20231;-65
2022/04/06 10:19:50;;;;;;;1.77;1.47;;;;;;;14.35;71.90;93707.03;4967240;28;20273;-65
2022/04/06 10:23:03;;;;;;;3.77;1.43;;;;;;;15.01;68.81;93706.50;4953744;28;20197;-65
2022/04/06 10:26:01;;;;;;;1.57;1.37;;;;;;;14.95;68.49;93691.31;4949644;28;20404;-66
2022/04/06 10:28:51;;;;;;;2.30;1.60;;;;;;;15.41;64.47;93685.59;4948712;28;20287;-66
2022/04/06 10:31:37;;;;;;;2.00;1.80;;;;;;;15.71;65.65;93695.22;4952142;28;20214;-67
2022/04/06 10:34:27;;;;;;;3.10;1.27;;;;;;;15.20;62.71;93677.06;4939526;28;20755;-67
2022/04/06 10:37:16;;;;;;;3.57;1.00;;;;;;;15.02;63.73;93676.97;4963190;28;20287;-67
2022/04/06 10:40:02;;;;;;;1.07;1.07;;;;;;;14.53;61.56;93670.69;4957368;28;20995;-67
2022/04/06 10:42:48;;;;;;;1.30;1.20;;;;;;;15.07;62.85;93670.69;4953862;28;20205;-67
2022/04/06 10:45:35;;;;;;;3.80;1.30;;;;;;;16.13;64.12;93657.13;4973605;28;20199;-68
2022/04/06 10:48:20;;;;;;;2.97;1.67;;;;;;;15.15;62.62;93669.59;4973113;28;20212;-68
2022/04/06 10:51:26;;;;;;;2.30;1.20;;;;;;;14.92;65.69;93664.81;4957086;28;20539;-68
2022/04/06 10:54:12;;;;;;;3.90;1.37;;;;;;;14.95;64.63;93653.53;4971003;28;20200;-69
2022/04/06 10:57:01;;;;;;;1.37;1.27;;;;;;;14.30;66.44;93661.88;4941351;29;20221;-69
2022/04/06 11:00:17;;;;;;;3.10;1.33;;;;;;;14.12;67.70;93659.75;4959389;28;20575;-68
2022/04/06 11:03:18;;;;;;;1.67;1.40;;;;;;;14.53;62.65;93637.72;4960745;28;20304;-68
2022/04/06 11:06:04;;;;;;;1.40;1.30;;;;;;;14.52;65.82;93636.97;4968876;28;20205;-68
2022/04/06 11:12:10;;;;;;;2.33;1.63;;;;;;;14.47;67.48;93631.53;4967956;28;20205;-69
2022/04/06 11:14:59;;;;;;;4.40;1.80;;;;;;;14.04;65.39;93625.84;4973997;28;20256;-67
2022/04/06 11:17:45;;;;;;;5.77;1.50;;;;;;;13.94;69.02;93630.16;4969565;28;20221;-69
2022/04/06 11:20:32;;;;;;;3.17;1.20;;;;;;;14.51;64.40;93627.25;4958587;28;20199;-68
2022/04/06 11:23:18;;;;;;;1.63;1.13;;;;;;;15.16;65.35;93626.31;4958134;28;20197;-69
2022/04/06 11:26:04;;;;;;;1.17;1.00;;;;;;;15.70;62.29;93618.66;4963832;28;20194;-68
2022/04/06 11:28:58;;;;;;;2.10;1.00;;;;;;;15.96;61.46;93616.06;4966054;28;20229;-68
2022/04/06 11:32:03;;;;;;;1.27;0.90;;;;;;;15.25;61.34;93617.72;4952930;28;20597;-69
2022/04/06 11:34:48;;;;;;;1.00;0.90;;;;;;;15.15;62.78;93603.56;4970272;28;20663;-68
2022/04/06 11:37:46;;;;;;;1.10;0.90;;;;;;;15.23;61.69;93607.25;4958521;28;20231;-69
2022/04/06 11:40:32;;;;;;;2.40;0.90;;;;;;;15.82;60.67;93592.47;4964760;28;20596;-69
2022/04/06 11:43:18;;;;;;;1.23;1.10;;;;;;;15.39;62.15;93598.06;4955631;28;20732;-68
2022/04/06 11:46:04;;;;;;;1.87;0.90;;;;;;;14.85;62.17;93589.19;4947447;28;20212;-68
2022/04/06 11:48:50;;;;;;;1.47;1.00;;;;;;;15.61;62.91;93584.00;4962382;28;21034;-69
2022/04/06 11:51:36;;;;;;;1.07;0.83;;;;;;;15.82;59.77;93577.97;4943780;28;20201;-68
2022/04/06 11:54:23;;;;;;;1.07;0.80;;;;;;;16.02;58.77;93561.63;4957030;28;20581;-69
2022/04/06 11:57:09;;;;;;;2.13;0.70;;;;;;;15.69;58.74;93570.41;4971269;28;20195;-68
2022/04/06 11:59:55;;;;;;;0.97;0.77;;;;;;;15.30;59.24;93565.41;4966348;28;20234;-67
2022/04/06 12:02:56;;;;;;;2.00;0.63;;;;;;;15.42;56.15;93561.28;4953385;28;20544;-68
2022/04/06 12:05:48;;;;;;;1.33;0.80;;;;;;;16.17;57.42;93564.63;4949262;28;20316;-68
2022/04/06 12:08:34;;;;;;;0.70;0.70;;;;;;;15.51;57.17;93557.38;4962563;28;20208;-68
2022/04/06 12:11:21;;;;;;;0.63;0.60;;;;;;;15.34;56.69;93554.09;4968324;28;20284;-67
2022/04/06 12:14:11;;;;;;;0.37;0.37;;;;;;;15.66;56.10;93549.44;4972451;28;20575;-68
2022/04/06 12:16:57;;;;;;;0.60;0.60;;;;;;;15.90;56.70;93549.28;4946852;28;20209;-68
2022/04/06 12:19:43;;;;;;;1.03;0.40;;;;;;;16.07;55.86;93549.78;4954050;28;20189;-67
2022/04/06 12:22:29;;;;;;;0.60;0.60;;;;;;;17.05;54.74;93536.78;4941873;28;20209;-67
2022/04/06 12:25:32;;;;;;;0.50;0.50;;;;;;;17.24;53.78;93538.13;4959900;28;20197;-67
2022/04/06 12:28:25;;;;;;;0.67;0.50;;;;;;;16.92;50.80;93525.75;4955462;28;20231;-67
2022/04/06 12:31:13;;;;;;;0.60;0.43;;;;;;;16.18;51.89;93524.81;4969330;28;20254;-68
2022/04/06 12:33:59;;;;;;;0.63;0.50;;;;;;;15.48;54.57;93520.66;4941604;28;20561;-68
2022/04/06 12:36:49;;;;;;;0.50;0.50;;;;;;;15.35;55.26;93528.06;4955327;28;20188;-68
2022/04/06 12:39:57;;;;;;;0.87;0.50;;;;;;;14.93;56.43;93517.88;4962301;28;20773;-68
2022/04/06 12:42:42;;;;;;;0.80;0.37;;;;;;;15.07;54.70;93505.72;4971118;28;20205;-68
2022/04/06 12:45:45;;;;;;;1.20;0.80;;;;;;;15.09;57.30;93508.66;4969924;28;20603;-68
2022/04/06 12:48:34;;;;;;;0.63;0.50;;;;;;;15.46;56.36;93509.41;4965225;28;20247;-68
2022/04/06 12:51:22;;;;;;;0.70;0.60;;;;;;;15.51;57.42;93496.84;4956383;28;20513;-68
2022/04/06 12:54:08;;;;;;;1.13;0.60;;;;;;;15.28;54.82;93484.66;4970110;28;20197;-67
2022/04/06 12:57:17;;;;;;;0.60;0.60;;;;;;;15.51;53.65;93485.84;4954993;28;20192;-68
2022/04/06 13:00:10;;;;;;;0.80;0.50;;;;;;;16.32;53.40;93478.75;4939686;28;20189;-67
2022/04/06 13:02:56;;;;;;;0.47;0.47;;;;;;;16.22;53.96;93491.44;4965369;28;20243;-67
2022/04/06 13:05:42;;;;;;;0.53;0.40;;;;;;;15.89;53.61;93481.75;4945697;28;20205;-68
2022/04/06 13:08:28;;;;;;;0.60;0.60;;;;;;;15.73;55.14;93477.97;4969767;28;20240;-70
2022/04/06 13:11:14;;;;;;;0.70;0.60;;;;;;;15.37;55.64;93476.75;4942263;28;20287;-70
2022/04/06 13:14:00;;;;;;;0.50;0.50;;;;;;;15.06;55.45;93465.72;4956203;28;20280;-69
2022/04/06 13:16:46;;;;;;;1.90;0.50;;;;;;;15.10;57.56;93469.63;4968302;28;20271;-69
2022/04/06 13:19:32;;;;;;;0.43;0.43;;;;;;;15.13;55.23;93465.88;4954899;28;20557;-70
2022/04/06 13:22:19;;;;;;;0.70;0.40;;;;;;;15.23;55.04;93468.97;4951654;28;20228;-69